Time;durP1;ratioP1;P1;durP2;ratioP2;P2;SDS_P1;SDS_P2;PMS_P1;PMS_P2;Temp;Humidity;BMP_temperature;BMP_pressure;BME280_temperature;BME280_humidity;BME280_pressure;Samples;Min_cycle;Max_cycle;Signal;HPM_P1;HPM_P2
2023/03/02 00:00:44;;;;;;;59.60;30.95;;;2.40;99.90;;;;;;5045642;28;20052;-43
2023/03/02 00:03:10;;;;;;;63.80;32.42;;;2.50;99.90;;;;;;5045821;28;20076;-42
2023/03/02 00:05:37;;;;;;;58.55;31.17;;;2.50;99.90;;;;;;5045736;28;20075;-42
2023/03/02 00:08:03;;;;;;;59.28;30.58;;;2.30;99.90;;;;;;5045655;28;20037;-41
2023/03/02 00:10:30;;;;;;;57.67;30.83;;;2.20;99.90;;;;;;5045612;28;20780;-43
2023/03/02 00:12:57;;;;;;;57.08;30.88;;;2.30;99.90;;;;;;5045570;28;20717;-42
2023/03/02 00:15:23;;;;;;;60.35;31.67;;;2.30;99.90;;;;;;5045732;28;20144;-41
2023/03/02 00:17:48;;;;;;;54.63;29.42;;;2.30;99.90;;;;;;5045161;28;20179;-42
2023/03/02 00:20:14;;;;;;;54.53;29.15;;;2.30;99.90;;;;;;5045541;28;20051;-42
2023/03/02 00:22:42;;;;;;;56.25;28.58;;;2.20;99.90;;;;;;5044951;28;20060;-42
2023/03/02 00:25:09;;;;;;;49.15;27.20;;;2.20;99.90;;;;;;5044325;28;20361;-43
2023/03/02 00:27:35;;;;;;;47.10;26.25;;;2.10;99.90;;;;;;5043575;28;20836;-42
2023/03/02 00:30:01;;;;;;;49.70;26.73;;;2.10;99.90;;;;;;5045310;28;20094;-41
2023/03/02 00:32:26;;;;;;;50.47;27.65;;;2.30;99.90;;;;;;5044078;28;20068;-43
2023/03/02 00:34:52;;;;;;;50.97;26.65;;;2.20;99.90;;;;;;5048407;28;20514;-41
2023/03/02 00:37:18;;;;;;;48.75;26.45;;;2.20;99.90;;;;;;5049301;28;20123;-42
2023/03/02 00:39:44;;;;;;;49.08;26.00;;;2.20;99.90;;;;;;5048916;28;20033;-43
2023/03/02 00:42:09;;;;;;;51.08;27.08;;;2.30;99.90;;;;;;5048899;28;20044;-42
2023/03/02 00:44:35;;;;;;;46.90;25.70;;;2.20;99.90;;;;;;5049015;28;20091;-42
2023/03/02 00:47:01;;;;;;;54.30;27.33;;;2.20;99.90;;;;;;5048340;28;20095;-43
2023/03/02 00:49:27;;;;;;;46.15;26.48;;;2.20;99.90;;;;;;5049117;28;20049;-46
2023/03/02 00:51:52;;;;;;;48.50;25.90;;;2.10;99.90;;;;;;5048653;28;20072;-47
2023/03/02 00:54:18;;;;;;;50.65;25.58;;;2.00;99.90;;;;;;5048470;28;20079;-48
2023/03/02 00:56:44;;;;;;;50.63;27.02;;;2.10;99.90;;;;;;5049143;28;20055;-49
2023/03/02 00:59:29;;;;;;;52.67;27.60;;;2.00;99.90;;;;;;5049046;28;20120;-47
2023/03/02 01:01:59;;;;;;;53.28;27.58;;;2.00;99.90;;;;;;5049204;28;20045;-47
2023/03/02 01:04:45;;;;;;;51.17;26.13;;;1.80;99.90;;;;;;5049441;28;20115;-47
2023/03/02 01:07:13;;;;;;;52.97;29.05;;;2.00;99.90;;;;;;5049080;28;20853;-50
2023/03/02 01:09:41;;;;;;;53.55;27.58;;;2.00;99.90;;;;;;5048659;28;20037;-50
2023/03/02 01:12:09;;;;;;;54.92;28.52;;;2.00;99.90;;;;;;5048888;28;20073;-47
2023/03/02 01:14:40;;;;;;;56.30;27.73;;;1.80;99.90;;;;;;5049065;28;20039;-47
2023/03/02 01:17:06;;;;;;;52.55;28.48;;;1.90;99.90;;;;;;5048675;28;20037;-46
2023/03/02 01:19:32;;;;;;;57.83;29.02;;;1.90;99.90;;;;;;5049052;28;20129;-47
2023/03/02 01:21:58;;;;;;;55.35;28.15;;;1.90;99.90;;;;;;5048607;28;20112;-46
2023/03/02 01:24:24;;;;;;;53.95;28.67;;;1.90;99.90;;;;;;5048249;28;20067;-48
2023/03/02 01:26:50;;;;;;;49.95;25.65;;;1.90;99.90;;;;;;5048409;28;20462;-48
2023/03/02 01:29:15;;;;;;;51.72;26.65;;;2.00;99.90;;;;;;5047155;28;20021;-47
2023/03/02 01:31:41;;;;;;;50.20;27.30;;;1.80;99.90;;;;;;5048361;28;20040;-47
2023/03/02 01:34:07;;;;;;;54.58;26.88;;;1.80;99.90;;;;;;5047921;28;20083;-47
2023/03/02 01:36:33;;;;;;;56.15;28.30;;;2.10;99.90;;;;;;5048157;28;20041;-47
2023/03/02 01:38:59;;;;;;;51.10;26.45;;;1.80;99.90;;;;;;5048484;28;20611;-47
2023/03/02 01:41:25;;;;;;;55.00;27.77;;;1.80;99.90;;;;;;5048258;28;20044;-47
2023/03/02 01:43:51;;;;;;;57.35;27.45;;;1.80;99.90;;;;;;5047492;28;20048;-47
2023/03/02 01:46:21;;;;;;;58.22;28.17;;;1.80;99.90;;;;;;5047002;28;20049;-47
2023/03/02 01:49:05;;;;;;;56.58;27.67;;;1.90;99.90;;;;;;5047551;28;20057;-46
2023/03/02 01:51:36;;;;;;;59.95;28.92;;;1.80;99.90;;;;;;5047566;28;20041;-46
2023/03/02 01:54:07;;;;;;;58.05;28.33;;;1.70;99.90;;;;;;5047134;28;20562;-46
2023/03/02 01:56:38;;;;;;;61.13;29.17;;;1.80;99.90;;;;;;5047360;28;20040;-46
2023/03/02 01:59:13;;;;;;;56.78;28.10;;;1.80;99.90;;;;;;5047416;28;20033;-46
2023/03/02 02:01:41;;;;;;;55.67;27.85;;;1.70;99.90;;;;;;5047194;28;20782;-47
2023/03/02 02:04:08;;;;;;;60.00;29.80;;;2.70;99.90;;;;;;5047200;28;20041;-47
2023/03/02 02:06:43;;;;;;;63.22;29.77;;;1.80;99.90;;;;;;5047247;28;20085;-47
2023/03/02 02:09:13;;;;;;;62.20;28.13;;;1.70;99.90;;;;;;5047376;28;20052;-47
2023/03/02 02:11:40;;;;;;;62.55;29.08;;;1.60;99.90;;;;;;5047390;28;20045;-49
2023/03/02 02:14:06;;;;;;;76.10;30.67;;;1.80;99.90;;;;;;5047530;28;20033;-46
2023/03/02 02:16:33;;;;;;;76.45;30.80;;;1.60;99.90;;;;;;5047917;28;20798;-50
2023/03/02 02:19:00;;;;;;;76.03;30.98;;;1.50;99.90;;;;;;5047362;28;20111;-50
2023/03/02 02:21:27;;;;;;;69.28;30.38;;;2.30;99.90;;;;;;5046860;28;20041;-47
2023/03/02 02:24:10;;;;;;;72.60;30.92;;;1.40;99.90;;;;;;5047129;28;20037;-48
2023/03/02 02:26:45;;;;;;;69.05;28.80;;;1.30;99.90;;;;;;5046950;28;20041;-49
2023/03/02 02:29:26;;;;;;;57.90;25.70;;;1.40;99.90;;;;;;5046715;28;20032;-49
2023/03/02 02:31:58;;;;;;;128.10;28.58;;;1.40;99.90;;;;;;5046938;28;20033;-49
2023/03/02 02:34:30;;;;;;;126.32;29.67;;;1.30;99.90;;;;;;5045700;28;20037;-50
2023/03/02 02:37:02;;;;;;;128.43;27.85;;;1.30;99.90;;;;;;5045285;28;20044;-50
2023/03/02 02:39:31;;;;;;;95.10;27.20;;;1.30;99.90;;;;;;5045804;28;20045;-50
2023/03/02 02:42:03;;;;;;;81.95;27.05;;;1.10;99.90;;;;;;5046722;28;20509;-47
2023/03/02 02:44:30;;;;;;;59.47;26.23;;;1.10;99.90;;;;;;5046771;28;20056;-49
2023/03/02 02:46:56;;;;;;;53.03;24.65;;;1.20;99.90;;;;;;5046395;28;20053;-48
2023/03/02 02:49:27;;;;;;;66.63;27.67;;;1.20;99.90;;;;;;5046272;28;20117;-46
2023/03/02 02:51:53;;;;;;;81.00;28.20;;;1.20;99.90;;;;;;5046354;28;20502;-47
2023/03/02 02:54:19;;;;;;;157.73;32.38;;;1.20;99.90;;;;;;5045879;28;20083;-46
2023/03/02 02:56:47;;;;;;;142.90;31.60;;;1.20;99.90;;;;;;5045813;28;20060;-47
2023/03/02 02:59:22;;;;;;;183.98;32.33;;;1.20;99.90;;;;;;5045685;28;20041;-47
2023/03/02 03:01:49;;;;;;;76.22;28.33;;;1.10;99.90;;;;;;5046487;28;20051;-47
2023/03/02 03:04:20;;;;;;;71.07;26.27;;;1.20;99.90;;;;;;5046378;28;20053;-46
2023/03/02 03:07:01;;;;;;;88.25;29.02;;;1.30;99.90;;;;;;5046461;28;20457;-46
2023/03/02 03:09:26;;;;;;;96.03;26.75;;;1.20;99.90;;;;;;5046130;28;20053;-49
2023/03/02 03:12:00;;;;;;;159.95;30.85;;;1.20;99.90;;;;;;5046045;28;20033;-48
2023/03/02 03:14:32;;;;;;;76.53;27.63;;;1.30;99.90;;;;;;5045929;28;20131;-47
2023/03/02 03:16:58;;;;;;;117.47;31.50;;;1.10;99.90;;;;;;5045769;28;20044;-45
2023/03/02 03:19:25;;;;;;;139.73;31.70;;;1.20;99.90;;;;;;5044283;28;20064;-46
2023/03/02 03:21:54;;;;;;;94.32;28.77;;;1.10;99.90;;;;;;5040170;28;20041;-46
2023/03/02 03:24:20;;;;;;;86.53;28.83;;;1.20;99.90;;;;;;5045206;28;20060;-46
2023/03/02 03:26:46;;;;;;;98.95;28.88;;;1.10;99.90;;;;;;5045337;28;20090;-50
2023/03/02 03:29:13;;;;;;;79.30;30.02;;;1.10;99.90;;;;;;5044372;28;20051;-49
2023/03/02 03:31:39;;;;;;;80.80;27.15;;;1.00;99.90;;;;;;5045613;28;20044;-46
2023/03/02 03:34:05;;;;;;;70.32;26.50;;;1.20;99.90;;;;;;5045727;28;20048;-46
2023/03/02 03:36:32;;;;;;;158.10;36.33;;;1.20;99.90;;;;;;5045690;28;20114;-47
2023/03/02 03:38:58;;;;;;;93.78;28.55;;;1.20;99.90;;;;;;5045828;28;20032;-47
2023/03/02 03:41:24;;;;;;;132.70;30.70;;;1.10;99.90;;;;;;5045257;28;20049;-47
2023/03/02 03:43:51;;;;;;;148.32;31.50;;;1.00;99.90;;;;;;5043993;28;20084;-51
2023/03/02 03:46:17;;;;;;;314.77;38.25;;;1.10;99.90;;;;;;5045361;28;20050;-48
2023/03/02 03:48:43;;;;;;;132.80;28.05;;;1.10;99.90;;;;;;5044801;28;20493;-47
2023/03/02 03:51:08;;;;;;;168.45;30.00;;;1.20;99.90;;;;;;5045080;28;20087;-47
2023/03/02 03:53:34;;;;;;;122.70;28.75;;;1.10;99.90;;;;;;5045135;28;20041;-46
2023/03/02 03:56:02;;;;;;;326.95;37.15;;;1.10;99.90;;;;;;5044892;28;20045;-46
2023/03/02 03:58:29;;;;;;;174.80;31.83;;;1.00;99.90;;;;;;5045175;28;20045;-48
2023/03/02 04:00:55;;;;;;;187.20;32.22;;;1.10;99.90;;;;;;5045065;28;20533;-49
2023/03/02 04:03:22;;;;;;;128.35;30.25;;;1.10;99.90;;;;;;5045451;28;20084;-48
2023/03/02 04:05:49;;;;;;;296.25;36.08;;;1.10;99.90;;;;;;5045319;28;20040;-47
2023/03/02 04:08:14;;;;;;;270.55;39.85;;;1.00;99.90;;;;;;5044931;28;20037;-48
2023/03/02 04:10:41;;;;;;;203.98;33.97;;;1.00;99.90;;;;;;5044840;28;20101;-46
2023/03/02 04:13:07;;;;;;;288.15;37.83;;;1.00;99.90;;;;;;5045031;28;20041;-48
2023/03/02 04:15:33;;;;;;;170.88;33.03;;;1.00;99.90;;;;;;5044879;28;20139;-47
2023/03/02 04:17:59;;;;;;;223.95;36.78;;;0.90;99.90;;;;;;5045114;28;20494;-50
2023/03/02 04:20:26;;;;;;;140.98;30.08;;;1.00;99.90;;;;;;5043378;28;20426;-46
2023/03/02 04:22:54;;;;;;;238.98;36.78;;;0.90;99.90;;;;;;5045288;28;20395;-50
2023/03/02 04:25:23;;;;;;;285.40;37.65;;;0.90;99.90;;;;;;5044006;28;20135;-46
2023/03/02 04:27:51;;;;;;;393.92;43.75;;;0.70;99.90;;;;;;5045051;28;20044;-48
2023/03/02 04:30:20;;;;;;;198.48;36.88;;;0.80;99.90;;;;;;5045929;28;20120;-46
2023/03/02 04:32:46;;;;;;;243.55;38.97;;;1.20;99.90;;;;;;5045808;28;20129;-48
2023/03/02 04:35:12;;;;;;;398.95;43.60;;;0.90;99.90;;;;;;5045650;28;20709;-46
2023/03/02 04:37:39;;;;;;;333.38;40.50;;;0.90;99.90;;;;;;5045136;28;20178;-49
2023/03/02 04:40:07;;;;;;;315.50;41.78;;;1.00;99.90;;;;;;5045016;28;20041;-45
2023/03/02 04:42:32;;;;;;;254.40;39.92;;;0.70;99.90;;;;;;5044646;28;20072;-47
2023/03/02 04:44:58;;;;;;;132.00;33.20;;;0.80;99.90;;;;;;5045031;28;20124;-47
2023/03/02 04:47:24;;;;;;;263.00;39.08;;;0.80;99.90;;;;;;5044567;28;20049;-48
2023/03/02 04:49:53;;;;;;;386.83;46.83;;;0.80;99.90;;;;;;5044462;28;20049;-49
2023/03/02 04:52:20;;;;;;;429.25;50.40;;;0.80;99.90;;;;;;5044417;28;20110;-48
2023/03/02 04:54:45;;;;;;;435.13;48.00;;;0.80;99.90;;;;;;5044323;28;20115;-47
2023/03/02 04:57:11;;;;;;;398.48;46.05;;;0.80;99.90;;;;;;5044329;28;20109;-48
2023/03/02 04:59:37;;;;;;;369.65;45.33;;;0.70;99.90;;;;;;5043924;28;20044;-49
2023/03/02 05:02:03;;;;;;;324.50;43.05;;;0.80;99.90;;;;;;5044318;28;20076;-49
2023/03/02 05:04:29;;;;;;;369.23;47.17;;;0.90;99.90;;;;;;5044698;28;20041;-48
2023/03/02 05:06:55;;;;;;;412.92;49.63;;;0.80;99.90;;;;;;5044742;28;20056;-47
2023/03/02 05:09:26;;;;;;;486.95;55.17;;;0.70;99.90;;;;;;5045043;28;20098;-48
2023/03/02 05:11:55;;;;;;;444.15;52.13;;;0.60;99.90;;;;;;5044628;28;20045;-48
2023/03/02 05:14:21;;;;;;;330.17;46.70;;;0.60;99.90;;;;;;5044548;28;20080;-49
2023/03/02 05:16:47;;;;;;;410.90;48.10;;;0.80;99.90;;;;;;5044420;28;20087;-50
2023/03/02 05:19:12;;;;;;;316.98;45.33;;;0.70;99.90;;;;;;5045289;28;20045;-47
2023/03/02 05:21:39;;;;;;;216.68;39.35;;;0.70;99.90;;;;;;5047436;28;20150;-49
2023/03/02 05:24:05;;;;;;;328.92;44.10;;;0.80;99.90;;;;;;5048218;28;20530;-49
2023/03/02 05:26:31;;;;;;;485.80;55.35;;;0.60;99.90;;;;;;5047979;28;20084;-49
2023/03/02 05:28:56;;;;;;;508.90;54.47;;;0.70;99.90;;;;;;5047390;28;20119;-50
2023/03/02 05:31:35;;;;;;;287.38;47.30;;;0.80;99.90;;;;;;5047657;28;20037;-47
2023/03/02 05:34:02;;;;;;;379.27;49.70;;;0.70;99.90;;;;;;5046899;28;20041;-48
2023/03/02 05:36:28;;;;;;;413.85;49.40;;;0.70;99.90;;;;;;5046820;28;20048;-50
2023/03/02 05:38:54;;;;;;;493.63;53.95;;;0.70;99.90;;;;;;5046667;28;20041;-48
2023/03/02 05:41:19;;;;;;;386.50;48.58;;;0.80;99.90;;;;;;5047896;28;20045;-48
2023/03/02 05:43:45;;;;;;;207.75;40.80;;;0.80;99.90;;;;;;5047696;28;20041;-48
2023/03/02 05:46:11;;;;;;;405.55;48.78;;;0.80;99.90;;;;;;5047264;28;20049;-47
2023/03/02 05:48:37;;;;;;;277.55;44.92;;;0.70;99.90;;;;;;5047639;28;20052;-49
2023/03/02 05:51:03;;;;;;;397.27;46.97;;;0.80;99.90;;;;;;5047538;28;20135;-46
2023/03/02 05:53:28;;;;;;;365.38;47.60;;;0.60;99.90;;;;;;5047625;28;20037;-47
2023/03/02 05:55:54;;;;;;;250.90;41.97;;;0.90;99.90;;;;;;5047241;28;20052;-42
2023/03/02 05:58:20;;;;;;;166.05;36.30;;;0.70;99.90;;;;;;5045766;28;20045;-46
2023/03/02 06:00:47;;;;;;;207.10;40.47;;;0.70;99.90;;;;;;5047368;28;20060;-43
2023/03/02 06:03:13;;;;;;;277.52;43.58;;;0.80;99.90;;;;;;5047055;28;20163;-43
2023/03/02 06:05:39;;;;;;;337.45;43.53;;;0.90;99.90;;;;;;5047218;28;20052;-42
2023/03/02 06:08:05;;;;;;;263.00;39.00;;;0.70;99.90;;;;;;5046928;28;20048;-42
2023/03/02 06:10:31;;;;;;;320.48;42.60;;;0.70;99.90;;;;;;5046970;28;20048;-43
2023/03/02 06:12:57;;;;;;;250.45;38.55;;;0.70;99.90;;;;;;5046752;28;20041;-42
2023/03/02 06:15:23;;;;;;;312.50;43.33;;;0.70;99.90;;;;;;5047135;28;20456;-42
2023/03/02 06:17:49;;;;;;;204.63;37.00;;;0.70;99.90;;;;;;5046889;28;20057;-42
2023/03/02 06:20:15;;;;;;;233.93;39.13;;;0.70;99.90;;;;;;5047286;28;20049;-42
2023/03/02 06:22:45;;;;;;;230.10;39.35;;;0.70;99.90;;;;;;5047361;28;20118;-42
2023/03/02 06:25:20;;;;;;;254.43;40.05;;;0.80;99.90;;;;;;5047193;28;20107;-42
2023/03/02 06:27:49;;;;;;;372.95;47.42;;;0.60;99.90;;;;;;5046685;28;20121;-43
2023/03/02 06:30:17;;;;;;;328.85;43.85;;;0.80;99.90;;;;;;5046230;28;20144;-42
2023/03/02 06:32:44;;;;;;;156.48;36.17;;;0.70;99.90;;;;;;5045886;28;20040;-42
2023/03/02 06:35:11;;;;;;;265.08;39.35;;;0.70;99.90;;;;;;5047068;28;20055;-42
2023/03/02 06:37:37;;;;;;;186.20;36.50;;;1.10;99.90;;;;;;5047043;28;20049;-41
2023/03/02 06:40:09;;;;;;;241.55;38.65;;;1.10;99.90;;;;;;5046812;28;20041;-43
2023/03/02 06:42:35;;;;;;;163.02;35.53;;;0.60;99.90;;;;;;5046647;28;20079;-43
2023/03/02 06:45:01;;;;;;;189.38;34.83;;;0.70;99.90;;;;;;5046298;28;20930;-42
2023/03/02 06:47:26;;;;;;;288.90;39.10;;;0.80;99.90;;;;;;5046857;28;21287;-42
2023/03/02 06:49:52;;;;;;;199.40;36.00;;;0.70;99.90;;;;;;5046840;28;20037;-42
2023/03/02 06:52:18;;;;;;;330.63;40.53;;;0.70;99.90;;;;;;5046568;28;20052;-43
2023/03/02 06:54:43;;;;;;;321.55;42.78;;;0.70;99.90;;;;;;5046532;28;20627;-42
2023/03/02 06:57:09;;;;;;;147.25;32.80;;;1.00;99.90;;;;;;5046466;28;20056;-42
2023/03/02 06:59:35;;;;;;;288.02;38.40;;;0.60;99.90;;;;;;5046441;28;20037;-42
2023/03/02 07:02:01;;;;;;;331.60;41.45;;;0.80;99.90;;;;;;5046203;28;20041;-42
2023/03/02 07:04:27;;;;;;;138.80;30.65;;;0.60;99.90;;;;;;5046218;28;20052;-42
2023/03/02 07:06:53;;;;;;;276.23;38.50;;;0.60;99.90;;;;;;5046077;28;20037;-43
2023/03/02 07:09:19;;;;;;;310.50;39.95;;;0.50;99.90;;;;;;5046411;28;20581;-42
2023/03/02 07:11:44;;;;;;;184.45;33.22;;;0.60;99.90;;;;;;5045971;28;20045;-41
2023/03/02 07:14:10;;;;;;;226.23;35.40;;;0.60;99.90;;;;;;5045731;28;20029;-42
2023/03/02 07:16:36;;;;;;;233.43;35.58;;;0.50;99.90;;;;;;5046570;28;20379;-41
2023/03/02 07:19:01;;;;;;;209.48;35.97;;;0.60;99.90;;;;;;5044759;28;20052;-43
2023/03/02 07:21:27;;;;;;;205.57;37.47;;;0.70;99.90;;;;;;5046496;28;20051;-43
2023/03/02 07:23:53;;;;;;;222.57;35.53;;;0.60;99.90;;;;;;5046514;28;20041;-44
2023/03/02 07:26:18;;;;;;;253.75;38.08;;;0.60;99.90;;;;;;5046285;28;20044;-41
2023/03/02 07:28:44;;;;;;;217.85;36.83;;;0.60;99.90;;;;;;5046004;28;20049;-42
2023/03/02 07:31:10;;;;;;;248.77;39.13;;;0.60;99.90;;;;;;5045789;28;20040;-42
2023/03/02 07:33:38;;;;;;;172.68;37.65;;;0.70;99.90;;;;;;5045929;28;20043;-42
2023/03/02 07:36:05;;;;;;;357.65;47.08;;;0.70;99.90;;;;;;5045681;28;20562;-42
2023/03/02 07:38:30;;;;;;;159.20;35.72;;;0.60;99.90;;;;;;5045920;28;20049;-42
2023/03/02 07:40:56;;;;;;;189.43;34.67;;;1.10;99.90;;;;;;5045444;28;20710;-43
2023/03/02 07:43:24;;;;;;;271.33;40.75;;;0.80;99.90;;;;;;5045173;28;20091;-42
2023/03/02 07:45:50;;;;;;;252.10;41.42;;;0.80;99.90;;;;;;5045542;28;20142;-42
2023/03/02 07:48:16;;;;;;;220.77;35.42;;;0.80;99.90;;;;;;5044713;28;20063;-42
2023/03/02 07:50:41;;;;;;;189.55;35.88;;;0.80;99.90;;;;;;5045594;28;20045;-42
2023/03/02 07:53:07;;;;;;;157.93;35.80;;;0.80;99.90;;;;;;5045416;28;20045;-42
2023/03/02 07:55:33;;;;;;;260.35;41.42;;;0.90;99.90;;;;;;5045708;28;20036;-43
2023/03/02 07:57:59;;;;;;;135.35;35.70;;;0.90;99.90;;;;;;5044622;28;20040;-41
2023/03/02 08:00:24;;;;;;;171.20;37.97;;;1.00;99.90;;;;;;5045171;28;20477;-42
2023/03/02 08:02:50;;;;;;;109.75;33.63;;;0.90;99.90;;;;;;5045051;28;20109;-42
2023/03/02 08:05:16;;;;;;;147.05;36.50;;;1.10;99.90;;;;;;5045101;28;20138;-42
2023/03/02 08:07:42;;;;;;;112.10;31.45;;;1.00;99.90;;;;;;5044143;28;20052;-43
2023/03/02 08:10:09;;;;;;;118.65;33.00;;;1.20;99.90;;;;;;5045538;28;20037;-42
2023/03/02 08:12:35;;;;;;;123.68;31.95;;;1.10;99.90;;;;;;5045627;28;20049;-42
2023/03/02 08:15:01;;;;;;;147.30;32.47;;;1.30;99.90;;;;;;5044838;28;20041;-44
2023/03/02 08:17:26;;;;;;;171.93;35.75;;;1.30;99.90;;;;;;5044942;28;20098;-43
2023/03/02 08:19:52;;;;;;;161.38;35.55;;;1.30;99.90;;;;;;5045347;28;20704;-43
2023/03/02 08:22:18;;;;;;;178.25;31.80;;;1.30;99.90;;;;;;5044259;28;20379;-42
2023/03/02 08:24:43;;;;;;;177.98;32.25;;;1.50;99.90;;;;;;5045172;28;20037;-45
2023/03/02 08:27:14;;;;;;;100.75;30.38;;;1.30;99.90;;;;;;5044908;28;20052;-42
2023/03/02 08:29:40;;;;;;;139.55;33.50;;;1.50;99.90;;;;;;5044894;28;20684;-42
2023/03/02 08:32:06;;;;;;;116.82;30.42;;;1.40;99.90;;;;;;5044891;28;20037;-42
2023/03/02 08:34:32;;;;;;;79.80;29.17;;;1.40;99.90;;;;;;5044393;28;20479;-42
2023/03/02 08:36:57;;;;;;;162.60;33.50;;;1.60;99.90;;;;;;5044838;28;20041;-43
2023/03/02 08:39:23;;;;;;;158.68;33.05;;;1.60;99.90;;;;;;5044473;28;20041;-45
2023/03/02 08:41:50;;;;;;;145.05;31.30;;;2.10;99.90;;;;;;5042629;28;20041;-44
2023/03/02 08:44:16;;;;;;;120.75;30.88;;;1.80;99.90;;;;;;5044378;28;20453;-43
2023/03/02 08:46:42;;;;;;;75.63;27.83;;;1.80;99.90;;;;;;5044667;28;20049;-43
2023/03/02 08:49:08;;;;;;;87.95;27.42;;;2.00;99.90;;;;;;5044363;28;20118;-42
2023/03/02 08:51:34;;;;;;;153.30;27.73;;;1.90;99.90;;;;;;5044081;28;20048;-42
2023/03/02 08:54:00;;;;;;;66.80;25.00;;;2.10;99.90;;;;;;5045326;28;20067;-41
2023/03/02 08:56:32;;;;;;;89.85;26.63;;;2.00;99.90;;;;;;5048361;28;20025;-43
2023/03/02 08:59:00;;;;;;;90.45;24.05;;;1.80;99.90;;;;;;5048679;28;20098;-44
2023/03/02 09:01:30;;;;;;;108.05;26.73;;;2.00;99.90;;;;;;5048301;28;20037;-41
2023/03/02 09:03:58;;;;;;;100.78;25.42;;;1.90;99.90;;;;;;5048561;28;20360;-44
2023/03/02 09:06:24;;;;;;;51.53;22.55;;;1.80;99.90;;;;;;5048407;28;20048;-43
2023/03/02 09:08:50;;;;;;;78.18;24.13;;;1.70;99.90;;;;;;5048580;28;20055;-42
2023/03/02 09:11:16;;;;;;;63.80;26.55;;;2.40;99.90;;;;;;5048212;28;20041;-43
2023/03/02 09:13:42;;;;;;;63.03;26.52;;;2.00;99.90;;;;;;5048258;28;20047;-42
2023/03/02 09:16:08;;;;;;;52.17;22.77;;;2.20;99.90;;;;;;5048536;28;20471;-42
2023/03/02 09:18:35;;;;;;;148.95;27.90;;;2.90;99.90;;;;;;5048305;28;20045;-42
2023/03/02 09:21:01;;;;;;;86.50;25.88;;;2.20;99.90;;;;;;5047988;28;20044;-42
2023/03/02 09:23:28;;;;;;;58.08;22.17;;;2.20;99.90;;;;;;5048358;28;20037;-42
2023/03/02 09:25:54;;;;;;;52.50;21.45;;;2.30;99.90;;;;;;5048429;28;20079;-42
2023/03/02 09:28:22;;;;;;;54.47;22.38;;;2.40;99.90;;;;;;5048200;28;20048;-42
2023/03/02 09:30:50;;;;;;;49.88;21.17;;;2.60;99.90;;;;;;5048855;28;20033;-42
2023/03/02 09:33:16;;;;;;;32.83;17.42;;;2.60;99.90;;;;;;5048062;28;20116;-42
2023/03/02 09:35:42;;;;;;;62.33;19.83;;;2.70;99.90;;;;;;5048293;28;20167;-43
2023/03/02 09:38:11;;;;;;;44.47;19.67;;;2.70;99.90;;;;;;5047756;28;20041;-44
2023/03/02 09:40:50;;;;;;;45.60;19.50;;;2.70;99.90;;;;;;5048142;28;20044;-43
2023/03/02 09:43:34;;;;;;;75.07;19.33;;;2.70;99.90;;;;;;5047702;28;20138;-42
2023/03/02 09:46:27;;;;;;;40.85;19.20;;;2.60;99.90;;;;;;5047784;28;20049;-43
2023/03/02 09:48:59;;;;;;;48.72;19.25;;;2.50;99.90;;;;;;5047253;28;20135;-43
2023/03/02 09:52:00;;;;;;;44.13;19.85;;;2.80;99.90;;;;;;5047144;28;20379;-43
2023/03/02 09:54:25;;;;;;;47.95;21.95;;;2.70;99.90;;;;;;5047291;28;20037;-44
2023/03/02 09:56:57;;;;;;;48.65;19.90;;;2.80;99.90;;;;;;5045831;28;20544;-44
2023/03/02 09:59:28;;;;;;;44.63;20.77;;;2.90;99.90;;;;;;5047842;28;20116;-43
2023/03/02 10:02:14;;;;;;;39.37;19.03;;;2.90;99.90;;;;;;5047793;28;20469;-43
2023/03/02 10:04:47;;;;;;;34.50;18.30;;;2.90;99.90;;;;;;5062421;28;20041;-42
2023/03/02 10:07:23;;;;;;;33.05;18.63;;;2.90;99.90;;;;;;5046507;28;20037;-42
2023/03/02 10:09:49;;;;;;;33.97;19.08;;;3.00;99.90;;;;;;5047297;28;20367;-43
2023/03/02 10:12:33;;;;;;;38.85;18.88;;;3.10;99.90;;;;;;5047200;28;20055;-43
2023/03/02 10:15:03;;;;;;;58.10;20.58;;;3.30;99.90;;;;;;5043433;28;20041;-42
2023/03/02 10:17:34;;;;;;;59.80;18.95;;;3.30;99.90;;;;;;5038395;28;20049;-43
2023/03/02 10:20:07;;;;;;;41.20;18.90;;;3.30;99.90;;;;;;5044834;28;20049;-42
2023/03/02 10:22:42;;;;;;;39.55;19.77;;;3.40;99.90;;;;;;5043959;28;20036;-42
2023/03/02 10:25:21;;;;;;;37.15;19.40;;;3.40;99.90;;;;;;5044228;28;20119;-43
2023/03/02 10:27:50;;;;;;;36.83;19.40;;;3.40;99.90;;;;;;5044645;28;20086;-42
2023/03/02 10:30:26;;;;;;;32.28;18.05;;;4.10;99.90;;;;;;5044119;28;20049;-43
2023/03/02 10:32:55;;;;;;;37.67;18.42;;;3.60;99.90;;;;;;5044335;28;20053;-42
2023/03/02 10:35:23;;;;;;;39.95;19.67;;;3.60;99.90;;;;;;5043802;28;20170;-45
2023/03/02 10:37:54;;;;;;;40.67;19.50;;;3.60;99.90;;;;;;5044100;28;20113;-44
2023/03/02 10:40:43;;;;;;;33.53;19.30;;;3.60;99.90;;;;;;5044089;28;20577;-44
2023/03/02 10:43:33;;;;;;;35.92;19.77;;;3.60;99.90;;;;;;5044143;28;20060;-44
2023/03/02 10:46:06;;;;;;;37.28;19.90;;;3.70;99.90;;;;;;5043819;28;20037;-44
2023/03/02 10:48:37;;;;;;;30.83;18.50;;;3.80;99.90;;;;;;5043051;28;20053;-44
2023/03/02 10:51:03;;;;;;;32.53;19.55;;;4.00;99.90;;;;;;5043659;28;20041;-43
2023/03/02 10:53:29;;;;;;;34.80;17.80;;;3.90;99.90;;;;;;5043313;28;20053;-43
2023/03/02 10:55:54;;;;;;;33.67;18.88;;;3.80;99.90;;;;;;5043847;28;20152;-43
2023/03/02 10:58:31;;;;;;;38.55;19.77;;;4.00;99.90;;;;;;5019665;28;20053;-48
2023/03/02 11:01:06;;;;;;;36.47;18.00;;;4.10;99.90;;;;;;5020102;28;20226;-46
2023/03/02 11:03:32;;;;;;;29.15;16.65;;;3.90;99.90;;;;;;5036695;28;20159;-45
2023/03/02 11:06:15;;;;;;;32.70;17.50;;;4.20;99.90;;;;;;5040390;28;20045;-46
2023/03/02 11:08:41;;;;;;;;;;;4.00;99.90;;;;;;5040442;28;20511;-47
2023/03/02 11:11:22;;;;;;;29.02;17.60;;;4.30;99.90;;;;;;5040776;28;19921;-42
2023/03/02 11:13:48;;;;;;;32.27;19.07;;;4.30;99.90;;;;;;5038932;28;20056;-47
2023/03/02 11:16:16;;;;;;;35.80;19.38;;;4.40;99.90;;;;;;5040661;28;20818;-49
2023/03/02 11:18:53;;;;;;;33.50;21.00;;;4.40;99.90;;;;;;5038286;28;20041;-50
2023/03/02 11:21:30;;;;;;;34.22;19.33;;;4.30;99.90;;;;;;5039520;28;20063;-47
2023/03/02 11:24:20;;;;;;;30.00;17.20;;;4.30;99.90;;;;;;5038924;28;20130;-50
2023/03/02 11:26:51;;;;;;;34.63;19.00;;;4.40;99.90;;;;;;5039930;28;20494;-48
2023/03/02 11:29:31;;;;;;;34.72;19.95;;;4.50;99.90;;;;;;5040203;28;20147;-47
2023/03/02 11:32:14;;;;;;;32.30;19.17;;;4.50;99.90;;;;;;5041187;28;20794;-51
2023/03/02 11:34:46;;;;;;;30.73;17.70;;;4.70;99.90;;;;;;5041860;28;20064;-50
2023/03/02 11:37:40;;;;;;;34.85;20.05;;;4.80;99.90;;;;;;5038908;28;20053;-52
2023/03/02 11:40:32;;;;;;;34.42;19.88;;;5.40;99.90;;;;;;5044531;28;20084;-51
2023/03/02 11:43:00;;;;;;;31.85;18.63;;;5.00;99.90;;;;;;5045293;28;20045;-49
2023/03/02 11:45:46;;;;;;;33.88;19.08;;;5.80;99.90;;;;;;5026349;28;20067;-56
2023/03/02 11:48:38;;;;;;;29.85;18.27;;;5.10;99.90;;;;;;5045983;28;20057;-57
2023/03/02 11:51:24;;;;;;;27.15;16.40;;;5.10;99.90;;;;;;5044588;28;20055;-58
2023/03/02 11:54:01;;;;;;;31.83;17.92;;;5.20;99.90;;;;;;5043504;28;20053;-58
2023/03/02 11:56:30;;;;;;;33.17;18.20;;;6.50;99.90;;;;;;5045435;28;20380;-57
2023/03/02 11:59:04;;;;;;;32.88;18.73;;;5.10;99.90;;;;;;5043655;28;20098;-47
2023/03/02 12:01:33;;;;;;;28.83;17.20;;;6.50;99.90;;;;;;5044045;28;20049;-47
2023/03/02 12:04:27;;;;;;;26.40;15.90;;;5.90;99.90;;;;;;5045402;28;20041;-51
2023/03/02 12:06:53;;;;;;;27.63;16.67;;;5.30;99.90;;;;;;5045988;28;20052;-56
2023/03/02 12:09:21;;;;;;;25.08;15.20;;;6.10;99.90;;;;;;5044802;28;20485;-58
2023/03/02 12:12:19;;;;;;;24.40;15.15;;;5.50;99.90;;;;;;5044965;28;20048;-59
2023/03/02 12:14:45;;;;;;;24.73;14.90;;;5.90;99.90;;;;;;5045979;28;20103;-48
2023/03/02 12:17:29;;;;;;;23.15;15.38;;;6.10;99.90;;;;;;5043163;28;20056;-47
2023/03/02 12:20:26;;;;;;;22.25;12.95;;;5.30;99.90;;;;;;5044573;28;20045;-46
2023/03/02 12:22:52;;;;;;;23.40;14.23;;;5.30;99.90;;;;;;5043257;28;20044;-49
2023/03/02 12:25:18;;;;;;;23.75;14.50;;;6.00;99.90;;;;;;5044810;28;20606;-48
2023/03/02 12:27:52;;;;;;;24.63;13.98;;;6.20;99.90;;;;;;5043512;28;20037;-56
2023/03/02 12:30:22;;;;;;;26.88;14.50;;;5.50;99.90;;;;;;5047561;28;20060;-59
2023/03/02 12:33:01;;;;;;;23.77;14.30;;;5.60;99.90;;;;;;5049135;28;20041;-57
2023/03/02 12:35:30;;;;;;;25.75;14.63;;;6.30;99.90;;;;;;5050205;28;20040;-56
2023/03/02 12:38:29;;;;;;;19.90;12.90;;;5.40;99.90;;;;;;5049460;28;20044;-53
2023/03/02 12:41:38;;;;;;;22.13;13.73;;;5.60;99.90;;;;;;5049203;28;20052;-49
2023/03/02 12:44:04;;;;;;;19.98;12.50;;;5.60;99.90;;;;;;5049460;28;20048;-45